sensor_id;sensor_type;location;lat;lon;timestamp;pressure;altitude;pressure_sealevel;temperature;humidity
13968;BME280;39536;52.198;9.920;2023-02-20T00:01:55;101446.72;;;6.02;100.00
13968;BME280;39536;52.198;9.920;2023-02-20T00:04:22;101422.59;;;6.05;100.00
13968;BME280;39536;52.198;9.920;2023-02-20T00:06:49;101426.88;;;6.07;100.00
13968;BME280;39536;52.198;9.920;2023-02-20T00:09:15;101431.22;;;6.08;100.00
13968;BME280;39536;52.198;9.920;2023-02-20T00:11:42;101432.03;;;6.01;100.00
13968;BME280;39536;52.198;9.920;2023-02-20T00:14:10;101450.16;;;6.01;100.00
13968;BME280;39536;52.198;9.920;2023-02-20T00:16:36;101437.25;;;6.09;100.00
13968;BME280;39536;52.198;9.920;2023-02-20T00:19:03;101438.09;;;6.03;100.00
13968;BME280;39536;52.198;9.920;2023-02-20T00:21:30;101436.34;;;6.04;100.00
13968;BME280;39536;52.198;9.920;2023-02-20T00:23:56;101422.59;;;6.05;100.00
13968;BME280;39536;52.198;9.920;2023-02-20T00:26:23;101425.19;;;6.08;100.00
13968;BME280;39536;52.198;9.920;2023-02-20T00:28:49;101424.31;;;6.12;100.00
13968;BME280;39536;52.198;9.920;2023-02-20T00:31:17;101430.34;;;6.18;100.00
13968;BME280;39536;52.198;9.920;2023-02-20T00:33:44;101415.69;;;6.14;100.00
13968;BME280;39536;52.198;9.920;2023-02-20T00:36:15;101411.38;;;6.15;100.00
13968;BME280;39536;52.198;9.920;2023-02-20T00:38:43;101417.41;;;6.15;100.00
13968;BME280;39536;52.198;9.920;2023-02-20T00:41:10;101408.78;;;6.13;100.00
13968;BME280;39536;52.198;9.920;2023-02-20T00:43:38;101412.22;;;6.15;100.00
13968;BME280;39536;52.198;9.920;2023-02-20T00:46:05;101420.88;;;6.14;100.00
13968;BME280;39536;52.198;9.920;2023-02-20T00:48:33;101408.78;;;6.19;100.00
13968;BME280;39536;52.198;9.920;2023-02-20T00:50:59;101414.81;;;6.21;100.00
13968;BME280;39536;52.198;9.920;2023-02-20T00:53:26;101387.22;;;6.20;100.00
13968;BME280;39536;52.198;9.920;2023-02-20T00:55:53;101394.13;;;6.21;100.00
13968;BME280;39536;52.198;9.920;2023-02-20T00:58:19;101374.28;;;6.23;100.00
13968;BME280;39536;52.198;9.920;2023-02-20T01:00:46;101389.81;;;6.20;100.00
13968;BME280;39536;52.198;9.920;2023-02-20T01:03:12;101410.50;;;6.20;100.00
13968;BME280;39536;52.198;9.920;2023-02-20T01:05:41;101399.28;;;6.21;100.00
13968;BME280;39536;52.198;9.920;2023-02-20T01:08:09;101396.72;;;6.24;100.00
13968;BME280;39536;52.198;9.920;2023-02-20T01:10:37;101399.28;;;6.18;100.00
13968;BME280;39536;52.198;9.920;2023-02-20T01:13:04;101390.69;;;6.18;100.00
13968;BME280;39536;52.198;9.920;2023-02-20T01:15:32;101394.13;;;6.20;100.00
13968;BME280;39536;52.198;9.920;2023-02-20T01:18:01;101395.84;;;6.19;100.00
13968;BME280;39536;52.198;9.920;2023-02-20T01:20:30;101387.22;;;6.22;100.00
13968;BME280;39536;52.198;9.920;2023-02-20T01:22:59;101388.09;;;6.24;100.00
13968;BME280;39536;52.198;9.920;2023-02-20T01:25:28;101388.06;;;6.22;100.00
13968;BME280;39536;52.198;9.920;2023-02-20T01:27:57;101384.63;;;6.25;100.00
13968;BME280;39536;52.198;9.920;2023-02-20T01:30:24;101390.66;;;6.36;100.00
13968;BME280;39536;52.198;9.920;2023-02-20T01:32:52;101384.63;;;6.30;100.00
13968;BME280;39536;52.198;9.920;2023-02-20T01:35:20;101380.31;;;6.39;100.00
13968;BME280;39536;52.198;9.920;2023-02-20T01:37:48;101365.66;;;6.31;100.00
13968;BME280;39536;52.198;9.920;2023-02-20T01:40:18;101349.25;;;6.32;100.00
13968;BME280;39536;52.198;9.920;2023-02-20T01:42:46;101330.28;;;6.25;100.00
13968;BME280;39536;52.198;9.920;2023-02-20T01:45:18;101334.63;;;6.21;100.00
13968;BME280;39536;52.198;9.920;2023-02-20T01:47:55;101327.69;;;6.28;100.00
13968;BME280;39536;52.198;9.920;2023-02-20T01:50:26;101332.00;;;6.26;100.00
13968;BME280;39536;52.198;9.920;2023-02-20T01:52:58;101329.44;;;6.23;100.00
13968;BME280;39536;52.198;9.920;2023-02-20T01:55:32;101324.28;;;6.20;100.00
13968;BME280;39536;52.198;9.920;2023-02-20T01:58:04;101328.59;;;6.16;100.00
13968;BME280;39536;52.198;9.920;2023-02-20T02:00:32;101322.56;;;6.20;100.00
13968;BME280;39536;52.198;9.920;2023-02-20T02:03:06;101307.91;;;6.15;100.00
13968;BME280;39536;52.198;9.920;2023-02-20T02:05:34;101306.16;;;6.21;100.00
13968;BME280;39536;52.198;9.920;2023-02-20T02:08:05;101301.00;;;6.21;100.00
13968;BME280;39536;52.198;9.920;2023-02-20T02:10:37;101298.41;;;6.24;100.00
13968;BME280;39536;52.198;9.920;2023-02-20T02:13:06;101279.44;;;6.10;100.00
13968;BME280;39536;52.198;9.920;2023-02-20T02:15:34;101277.75;;;6.11;100.00
13968;BME280;39536;52.198;9.920;2023-02-20T02:18:25;101272.56;;;6.09;100.00
13968;BME280;39536;52.198;9.920;2023-02-20T02:24:29;101260.53;;;6.02;100.00
13968;BME280;39536;52.198;9.920;2023-02-20T02:27:27;101263.09;;;6.00;100.00
13968;BME280;39536;52.198;9.920;2023-02-20T02:38:55;101260.53;;;5.93;100.00
13968;BME280;39536;52.198;9.920;2023-02-20T02:41:33;101253.59;;;5.92;100.00
13968;BME280;39536;52.198;9.920;2023-02-20T02:44:10;101247.59;;;5.87;100.00
13968;BME280;39536;52.198;9.920;2023-02-20T02:46:43;101232.94;;;5.89;100.00
13968;BME280;39536;52.198;9.920;2023-02-20T02:49:19;101216.56;;;5.82;100.00
13968;BME280;39536;52.198;9.920;2023-02-20T02:51:50;101230.38;;;5.83;100.00
13968;BME280;39536;52.198;9.920;2023-02-20T02:54:25;101232.09;;;5.77;100.00
13968;BME280;39536;52.198;9.920;2023-02-20T02:57:23;101225.22;;;5.76;100.00
13968;BME280;39536;52.198;9.920;2023-02-20T02:59:57;101213.97;;;5.79;100.00
13968;BME280;39536;52.198;9.920;2023-02-20T03:02:30;101209.69;;;5.83;100.00
13968;BME280;39536;52.198;9.920;2023-02-20T03:05:01;101214.00;;;5.81;100.00
13968;BME280;39536;52.198;9.920;2023-02-20T03:07:35;101214.84;;;5.78;100.00
13968;BME280;39536;52.198;9.920;2023-02-20T03:10:07;101187.28;;;5.72;100.00
13968;BME280;39536;52.198;9.920;2023-02-20T03:12:37;101204.53;;;5.79;100.00
13968;BME280;39536;52.198;9.920;2023-02-20T03:15:12;101202.78;;;5.83;100.00
13968;BME280;39536;52.198;9.920;2023-02-20T03:18:04;101197.59;;;5.86;100.00
13968;BME280;39536;52.198;9.920;2023-02-20T03:20:41;101187.25;;;5.91;100.00
13968;BME280;39536;52.198;9.920;2023-02-20T03:23:14;101196.72;;;5.90;100.00
13968;BME280;39536;52.198;9.920;2023-02-20T03:25:49;101187.25;;;5.91;100.00
13968;BME280;39536;52.198;9.920;2023-02-20T03:28:22;101195.91;;;5.93;100.00
13968;BME280;39536;52.198;9.920;2023-02-20T03:30:55;101192.44;;;5.95;100.00
13968;BME280;39536;52.198;9.920;2023-02-20T03:33:31;101188.09;;;6.04;100.00
13968;BME280;39536;52.198;9.920;2023-02-20T03:36:22;101196.72;;;6.06;100.00
13968;BME280;39536;52.198;9.920;2023-02-20T03:39:16;101202.75;;;6.03;100.00
13968;BME280;39536;52.198;9.920;2023-02-20T03:42:04;101206.19;;;6.04;100.00
13968;BME280;39536;52.198;9.920;2023-02-20T03:44:51;101192.41;;;6.03;100.00
13968;BME280;39536;52.198;9.920;2023-02-20T03:47:21;101174.31;;;6.01;100.00
13968;BME280;39536;52.198;9.920;2023-02-20T03:49:51;101167.41;;;6.08;100.00
13968;BME280;39536;52.198;9.920;2023-02-20T03:52:20;101158.78;;;6.06;100.00
13968;BME280;39536;52.198;9.920;2023-02-20T03:54:50;101158.75;;;6.12;100.00
13968;BME280;39536;52.198;9.920;2023-02-20T03:57:22;101150.13;;;6.15;100.00
13968;BME280;39536;52.198;9.920;2023-02-20T03:59:53;101162.22;;;6.10;100.00
13968;BME280;39536;52.198;9.920;2023-02-20T04:02:29;101157.00;;;6.19;100.00
13968;BME280;39536;52.198;9.920;2023-02-20T04:05:00;101166.44;;;6.23;100.00
13968;BME280;39536;52.198;9.920;2023-02-20T04:07:34;101166.47;;;6.21;100.00
13968;BME280;39536;52.198;9.920;2023-02-20T04:10:08;101144.91;;;6.24;100.00
13968;BME280;39536;52.198;9.920;2023-02-20T04:12:41;101152.66;;;6.30;100.00
13968;BME280;39536;52.198;9.920;2023-02-20T04:15:10;101141.44;;;6.33;100.00
13968;BME280;39536;52.198;9.920;2023-02-20T04:17:41;101134.53;;;6.30;100.00
13968;BME280;39536;52.198;9.920;2023-02-20T04:20:10;101142.25;;;6.36;100.00
13968;BME280;39536;52.198;9.920;2023-02-20T04:22:40;101133.66;;;6.33;100.00
13968;BME280;39536;52.198;9.920;2023-02-20T04:25:12;101128.44;;;6.40;100.00
13968;BME280;39536;52.198;9.920;2023-02-20T04:27:41;101123.31;;;6.33;100.00
13968;BME280;39536;52.198;9.920;2023-02-20T04:30:09;101116.34;;;6.45;100.00
13968;BME280;39536;52.198;9.920;2023-02-20T04:32:35;101117.16;;;6.49;100.00
13968;BME280;39536;52.198;9.920;2023-02-20T04:35:02;101123.22;;;6.51;100.00
13968;BME280;39536;52.198;9.920;2023-02-20T04:37:29;101101.63;;;6.52;100.00
13968;BME280;39536;52.198;9.920;2023-02-20T04:39:55;101106.75;;;6.57;100.00
13968;BME280;39536;52.198;9.920;2023-02-20T04:42:23;101090.38;;;6.53;100.00
13968;BME280;39536;52.198;9.920;2023-02-20T04:44:50;101076.53;;;6.60;100.00
13968;BME280;39536;52.198;9.920;2023-02-20T04:47:17;101072.22;;;6.61;100.00
13968;BME280;39536;52.198;9.920;2023-02-20T04:49:44;101044.63;;;6.61;100.00
13968;BME280;39536;52.198;9.920;2023-02-20T04:52:11;101041.16;;;6.61;100.00
13968;BME280;39536;52.198;9.920;2023-02-20T04:54:37;101040.28;;;6.62;100.00
13968;BME280;39536;52.198;9.920;2023-02-20T04:57:04;101038.56;;;6.59;100.00
13968;BME280;39536;52.198;9.920;2023-02-20T04:59:32;101038.53;;;6.67;100.00
13968;BME280;39536;52.198;9.920;2023-02-20T05:01:59;101036.78;;;6.66;100.00
13968;BME280;39536;52.198;9.920;2023-02-20T05:04:26;101051.44;;;6.73;100.00
13968;BME280;39536;52.198;9.920;2023-02-20T05:06:54;101045.38;;;6.69;100.00
13968;BME280;39536;52.198;9.920;2023-02-20T05:09:21;101046.28;;;6.65;100.00
13968;BME280;39536;52.198;9.920;2023-02-20T05:11:48;101036.78;;;6.70;100.00
13968;BME280;39536;52.198;9.920;2023-02-20T05:14:15;101029.88;;;6.68;100.00
13968;BME280;39536;52.198;9.920;2023-02-20T05:16:43;101041.06;;;6.71;100.00
13968;BME280;39536;52.198;9.920;2023-02-20T05:19:11;101057.41;;;6.80;100.00
13968;BME280;39536;52.198;9.920;2023-02-20T05:21:40;101058.28;;;6.77;100.00
13968;BME280;39536;52.198;9.920;2023-02-20T05:24:24;101045.31;;;6.79;100.00
13968;BME280;39536;52.198;9.920;2023-02-20T05:26:52;101035.81;;;6.82;100.00
13968;BME280;39536;52.198;9.920;2023-02-20T05:29:19;101045.22;;;6.89;100.00
13968;BME280;39536;52.198;9.920;2023-02-20T05:31:47;101051.22;;;6.91;100.00
13968;BME280;39536;52.198;9.920;2023-02-20T05:34:14;101030.50;;;6.94;100.00
13968;BME280;39536;52.198;9.920;2023-02-20T05:36:40;101045.19;;;6.94;100.00
13968;BME280;39536;52.198;9.920;2023-02-20T05:39:07;101040.03;;;6.92;100.00
13968;BME280;39536;52.198;9.920;2023-02-20T05:41:34;101031.34;;;6.97;100.00
13968;BME280;39536;52.198;9.920;2023-02-20T05:44:00;101034.88;;;6.88;100.00
13968;BME280;39536;52.198;9.920;2023-02-20T05:46:27;101034.00;;;6.92;100.00
13968;BME280;39536;52.198;9.920;2023-02-20T05:48:55;101023.63;;;6.90;100.00
13968;BME280;39536;52.198;9.920;2023-02-20T05:51:22;101008.13;;;6.87;100.00
13968;BME280;39536;52.198;9.920;2023-02-20T05:53:50;101009.84;;;6.87;100.00
13968;BME280;39536;52.198;9.920;2023-02-20T05:56:18;101012.41;;;6.90;100.00
13968;BME280;39536;52.198;9.920;2023-02-20T05:58:45;101010.72;;;6.87;100.00
13968;BME280;39536;52.198;9.920;2023-02-20T06:01:16;100994.22;;;6.94;100.00
13968;BME280;39536;52.198;9.920;2023-02-20T06:03:43;100987.28;;;7.01;100.00
13968;BME280;39536;52.198;9.920;2023-02-20T06:06:11;100986.44;;;6.98;100.00
13968;BME280;39536;52.198;9.920;2023-02-20T06:08:38;100978.66;;;6.98;100.00
13968;BME280;39536;52.198;9.920;2023-02-20T06:11:05;100994.16;;;7.01;100.00
13968;BME280;39536;52.198;9.920;2023-02-20T06:13:32;100992.47;;;7.01;100.00
13968;BME280;39536;52.198;9.920;2023-02-20T06:15:58;100984.59;;;7.10;100.00
13968;BME280;39536;52.198;9.920;2023-02-20T06:18:25;100990.63;;;7.11;100.00
13968;BME280;39536;52.198;9.920;2023-02-20T06:20:52;100990.53;;;7.20;100.00
13968;BME280;39536;52.198;9.920;2023-02-20T06:23:20;100984.44;;;7.23;100.00
13968;BME280;39536;52.198;9.920;2023-02-20T06:25:46;100973.22;;;7.24;100.00
13968;BME280;39536;52.198;9.920;2023-02-20T06:28:13;100968.88;;;7.24;100.00
13968;BME280;39536;52.198;9.920;2023-02-20T06:30:40;100967.97;;;7.28;100.00
13968;BME280;39536;52.198;9.920;2023-02-20T06:33:06;100983.53;;;7.25;100.00
13968;BME280;39536;52.198;9.920;2023-02-20T06:35:33;100974.84;;;7.31;100.00
13968;BME280;39536;52.198;9.920;2023-02-20T06:38:00;100983.44;;;7.34;100.00
13968;BME280;39536;52.198;9.920;2023-02-20T06:40:28;100982.63;;;7.31;100.00
13968;BME280;39536;52.198;9.920;2023-02-20T06:42:54;100952.28;;;7.37;100.00
13968;BME280;39536;52.198;9.920;2023-02-20T06:45:21;100961.81;;;7.38;100.00
13968;BME280;39536;52.198;9.920;2023-02-20T06:47:48;100966.09;;;7.39;100.00
13968;BME280;39536;52.198;9.920;2023-02-20T06:50:15;100964.38;;;7.40;100.00
13968;BME280;39536;52.198;9.920;2023-02-20T06:52:41;100965.13;;;7.47;100.00
13968;BME280;39536;52.198;9.920;2023-02-20T06:55:08;100971.94;;;7.54;100.00
13968;BME280;39536;52.198;9.920;2023-02-20T06:57:36;100963.41;;;7.47;100.00
13968;BME280;39536;52.198;9.920;2023-02-20T07:00:04;100968.56;;;7.49;100.00
13968;BME280;39536;52.198;9.920;2023-02-20T07:02:31;100965.09;;;7.51;100.00
13968;BME280;39536;52.198;9.920;2023-02-20T07:04:59;100960.81;;;7.49;100.00
13968;BME280;39536;52.198;9.920;2023-02-20T07:07:26;100962.44;;;7.56;100.00
13968;BME280;39536;52.198;9.920;2023-02-20T07:09:52;100973.72;;;7.52;100.00
13968;BME280;39536;52.198;9.920;2023-02-20T07:12:19;100963.28;;;7.56;100.00
13968;BME280;39536;52.198;9.920;2023-02-20T07:14:49;100964.28;;;7.46;100.00
13968;BME280;39536;52.198;9.920;2023-02-20T07:17:15;100974.63;;;7.51;100.00
13968;BME280;39536;52.198;9.920;2023-02-20T07:19:42;100990.16;;;7.51;100.00
13968;BME280;39536;52.198;9.920;2023-02-20T07:22:09;100977.13;;;7.55;100.00
13968;BME280;39536;52.198;9.920;2023-02-20T07:24:35;100979.72;;;7.54;100.00
13968;BME280;39536;52.198;9.920;2023-02-20T07:27:02;100997.00;;;7.55;100.00
13968;BME280;39536;52.198;9.920;2023-02-20T07:29:29;100977.97;;;7.57;100.00
13968;BME280;39536;52.198;9.920;2023-02-20T07:31:57;100977.09;;;7.58;100.00
13968;BME280;39536;52.198;9.920;2023-02-20T07:34:24;100974.47;;;7.60;100.00
13968;BME280;39536;52.198;9.920;2023-02-20T07:36:50;100966.69;;;7.60;100.00
13968;BME280;39536;52.198;9.920;2023-02-20T07:39:17;100964.09;;;7.60;100.00
13968;BME280;39536;52.198;9.920;2023-02-20T07:41:43;100957.13;;;7.65;100.00
13968;BME280;39536;52.198;9.920;2023-02-20T07:44:11;100954.53;;;7.67;100.00
13968;BME280;39536;52.198;9.920;2023-02-20T07:46:39;100947.69;;;7.61;100.00
13968;BME280;39536;52.198;9.920;2023-02-20T07:49:07;100953.75;;;7.58;100.00
13968;BME280;39536;52.198;9.920;2023-02-20T07:51:34;100966.59;;;7.66;100.00
13968;BME280;39536;52.198;9.920;2023-02-20T07:54:02;100960.69;;;7.56;100.00
13968;BME280;39536;52.198;9.920;2023-02-20T07:56:28;100971.94;;;7.55;100.00
13968;BME280;39536;52.198;9.920;2023-02-20T07:58:55;100967.56;;;7.60;100.00
13968;BME280;39536;52.198;9.920;2023-02-20T08:01:22;100964.97;;;7.60;100.00
13968;BME280;39536;52.198;9.920;2023-02-20T08:03:49;100955.47;;;7.61;100.00
13968;BME280;39536;52.198;9.920;2023-02-20T08:06:18;100963.06;;;7.72;100.00
13968;BME280;39536;52.198;9.920;2023-02-20T08:08:48;100941.59;;;7.62;100.00
13968;BME280;39536;52.198;9.920;2023-02-20T08:11:15;100951.00;;;7.69;100.00
13968;BME280;39536;52.198;9.920;2023-02-20T08:13:42;100929.50;;;7.64;100.00
13968;BME280;39536;52.198;9.920;2023-02-20T08:16:09;100934.56;;;7.72;100.00
13968;BME280;39536;52.198;9.920;2023-02-20T08:18:35;100938.06;;;7.66;100.00
13968;BME280;39536;52.198;9.920;2023-02-20T08:21:02;100932.94;;;7.63;100.00
13968;BME280;39536;52.198;9.920;2023-02-20T08:23:30;100952.78;;;7.66;100.00
13968;BME280;39536;52.198;9.920;2023-02-20T08:25:57;100933.75;;;7.68;100.00
13968;BME280;39536;52.198;9.920;2023-02-20T08:28:25;100974.38;;;7.68;100.00
13968;BME280;39536;52.198;9.920;2023-02-20T08:30:51;100936.28;;;7.73;100.00
13968;BME280;39536;52.198;9.920;2023-02-20T08:33:18;100920.78;;;7.70;100.00
13968;BME280;39536;52.198;9.920;2023-02-20T08:35:44;100931.19;;;7.67;100.00
13968;BME280;39536;52.198;9.920;2023-02-20T08:38:24;100922.56;;;7.63;100.00
13968;BME280;39536;52.198;9.920;2023-02-20T08:40:53;100932.06;;;7.64;100.00
13968;BME280;39536;52.198;9.920;2023-02-20T08:43:20;100926.94;;;7.61;100.00
13968;BME280;39536;52.198;9.920;2023-02-20T08:45:47;100929.56;;;7.58;100.00
13968;BME280;39536;52.198;9.920;2023-02-20T08:48:14;100913.13;;;7.60;100.00
13968;BME280;39536;52.198;9.920;2023-02-20T08:50:40;100915.63;;;7.67;100.00
13968;BME280;39536;52.198;9.920;2023-02-20T08:53:07;100922.47;;;7.69;100.00
13968;BME280;39536;52.198;9.920;2023-02-20T08:55:34;100926.00;;;7.65;100.00
13968;BME280;39536;52.198;9.920;2023-02-20T08:58:02;100914.69;;;7.69;100.00
13968;BME280;39536;52.198;9.920;2023-02-20T09:00:29;100938.97;;;7.67;100.00
13968;BME280;39536;52.198;9.920;2023-02-20T09:02:55;100944.16;;;7.65;100.00
13968;BME280;39536;52.198;9.920;2023-02-20T09:05:22;100922.47;;;7.71;100.00
13968;BME280;39536;52.198;9.920;2023-02-20T09:07:49;100919.84;;;7.72;100.00
13968;BME280;39536;52.198;9.920;2023-02-20T09:10:17;100921.53;;;7.75;100.00
13968;BME280;39536;52.198;9.920;2023-02-20T09:12:44;100917.16;;;7.80;100.00
13968;BME280;39536;52.198;9.920;2023-02-20T09:15:12;100924.13;;;7.75;100.00
13968;BME280;39536;52.198;9.920;2023-02-20T09:17:42;100909.56;;;7.68;100.00
13968;BME280;39536;52.198;9.920;2023-02-20T09:20:09;100922.47;;;7.71;100.00
13968;BME280;39536;52.198;9.920;2023-02-20T09:22:36;100908.47;;;7.82;100.00
13968;BME280;39536;52.198;9.920;2023-02-20T09:25:03;100892.88;;;7.84;100.00
13968;BME280;39536;52.198;9.920;2023-02-20T09:27:31;100902.41;;;7.83;100.00
13968;BME280;39536;52.198;9.920;2023-02-20T09:29:57;100891.22;;;7.80;100.00
13968;BME280;39536;52.198;9.920;2023-02-20T09:32:25;100883.31;;;7.87;100.00
13968;BME280;39536;52.198;9.920;2023-02-20T09:34:52;100878.16;;;7.86;100.00
13968;BME280;39536;52.198;9.920;2023-02-20T09:37:19;100885.03;;;7.89;100.00
13968;BME280;39536;52.198;9.920;2023-02-20T09:39:45;100884.91;;;7.98;100.00
13968;BME280;39536;52.198;9.920;2023-02-20T09:42:25;100873.53;;;8.05;100.00
13968;BME280;39536;52.198;9.920;2023-02-20T09:45:02;100886.41;;;8.11;100.00
13968;BME280;39536;52.198;9.920;2023-02-20T09:47:41;100894.28;;;8.03;100.00
13968;BME280;39536;52.198;9.920;2023-02-20T09:50:13;100874.56;;;7.95;100.00
13968;BME280;39536;52.198;9.920;2023-02-20T09:52:43;100849.44;;;7.98;100.00
13968;BME280;39536;52.198;9.920;2023-02-20T09:55:14;100868.50;;;7.94;100.00
13968;BME280;39536;52.198;9.920;2023-02-20T09:57:46;100865.94;;;7.93;100.00
13968;BME280;39536;52.198;9.920;2023-02-20T10:00:20;100864.84;;;8.06;100.00
13968;BME280;39536;52.198;9.920;2023-02-20T10:02:56;100854.56;;;8.01;100.00
13968;BME280;39536;52.198;9.920;2023-02-20T10:05:28;100868.34;;;8.05;100.00
13968;BME280;39536;52.198;9.920;2023-02-20T10:07:55;100867.34;;;8.12;100.00
13968;BME280;39536;52.198;9.920;2023-02-20T10:10:24;100848.47;;;8.02;100.00
13968;BME280;39536;52.198;9.920;2023-02-20T10:12:59;100859.00;;;7.93;100.00
13968;BME280;39536;52.198;9.920;2023-02-20T10:15:36;100857.28;;;7.94;100.00
13968;BME280;39536;52.198;9.920;2023-02-20T10:18:18;100843.50;;;7.90;100.00
13968;BME280;39536;52.198;9.920;2023-02-20T10:20:55;100889.34;;;7.88;100.00
13968;BME280;39536;52.198;9.920;2023-02-20T10:23:31;100854.72;;;7.92;100.00
13968;BME280;39536;52.198;9.920;2023-02-20T10:26:03;100853.88;;;7.90;100.00
13968;BME280;39536;52.198;9.920;2023-02-20T10:28:30;100885.19;;;7.79;100.00
13968;BME280;39536;52.198;9.920;2023-02-20T10:30:59;100843.00;;;7.70;100.00
13968;BME280;39536;52.198;9.920;2023-02-20T10:33:36;100836.81;;;7.75;100.00
13968;BME280;39536;52.198;9.920;2023-02-20T10:36:08;100842.66;;;7.88;100.00
13968;BME280;39536;52.198;9.920;2023-02-20T10:38:41;100839.13;;;7.94;100.00
13968;BME280;39536;52.198;9.920;2023-02-20T10:41:14;100873.78;;;7.90;100.00
13968;BME280;39536;52.198;9.920;2023-02-20T10:43:48;100850.59;;;7.80;100.00
13968;BME280;39536;52.198;9.920;2023-02-20T10:46:19;100879.09;;;7.82;100.00
13968;BME280;39536;52.198;9.920;2023-02-20T10:48:54;100853.03;;;7.88;100.00
13968;BME280;39536;52.198;9.920;2023-02-20T10:51:26;100862.47;;;7.94;100.00
13968;BME280;39536;52.198;9.920;2023-02-20T10:53:58;100886.75;;;7.88;100.00
13968;BME280;39536;52.198;9.920;2023-02-20T10:56:30;100865.09;;;7.91;100.00
13968;BME280;39536;52.198;9.920;2023-02-20T10:59:03;100855.63;;;7.88;100.00
13968;BME280;39536;52.198;9.920;2023-02-20T11:01:35;100855.56;;;7.91;100.00
13968;BME280;39536;52.198;9.920;2023-02-20T11:04:08;100882.44;;;7.87;100.00
13968;BME280;39536;52.198;9.920;2023-02-20T11:06:39;100858.31;;;7.85;100.00
13968;BME280;39536;52.198;9.920;2023-02-20T11:09:08;100860.91;;;7.85;100.00
13968;BME280;39536;52.198;9.920;2023-02-20T11:11:36;100851.28;;;7.90;100.00
13968;BME280;39536;52.198;9.920;2023-02-20T11:14:11;100857.38;;;7.87;100.00
13968;BME280;39536;52.198;9.920;2023-02-20T11:16:43;100860.81;;;7.88;100.00
13968;BME280;39536;52.198;9.920;2023-02-20T11:19:17;100845.16;;;7.94;100.00
13968;BME280;39536;52.198;9.920;2023-02-20T11:21:47;100865.09;;;7.92;100.00
13968;BME280;39536;52.198;9.920;2023-02-20T11:24:29;100875.53;;;7.87;100.00
13968;BME280;39536;52.198;9.920;2023-02-20T11:29:42;100891.13;;;7.86;100.00
13968;BME280;39536;52.198;9.920;2023-02-20T11:32:29;100867.94;;;7.75;100.00
13968;BME280;39536;52.198;9.920;2023-02-20T11:35:26;100890.41;;;7.75;100.00
13968;BME280;39536;52.198;9.920;2023-02-20T11:38:23;100892.03;;;7.83;100.00
13968;BME280;39536;52.198;9.920;2023-02-20T11:41:06;100900.06;;;7.67;100.00
13968;BME280;39536;52.198;9.920;2023-02-20T11:43:35;100920.84;;;7.63;100.00
13968;BME280;39536;52.198;9.920;2023-02-20T11:46:10;100892.34;;;7.63;100.00
13968;BME280;39536;52.198;9.920;2023-02-20T11:48:59;100876.97;;;7.51;100.00
13968;BME280;39536;52.198;9.920;2023-02-20T11:51:36;100837.22;;;7.51;100.00
13968;BME280;39536;52.198;9.920;2023-02-20T11:54:13;100882.94;;;7.55;100.00
13968;BME280;39536;52.198;9.920;2023-02-20T11:56:54;100869.09;;;7.57;100.00
13968;BME280;39536;52.198;9.920;2023-02-20T11:59:30;100868.47;;;7.42;100.00
13968;BME280;39536;52.198;9.920;2023-02-20T12:02:22;100873.44;;;7.54;100.00
13968;BME280;39536;52.198;9.920;2023-02-20T12:05:09;100853.72;;;7.44;100.00
13968;BME280;39536;52.198;9.920;2023-02-20T12:07:41;100852.00;;;7.44;100.00
13968;BME280;39536;52.198;9.920;2023-02-20T12:10:30;100852.84;;;7.46;100.00
13968;BME280;39536;52.198;9.920;2023-02-20T12:13:02;100859.81;;;7.43;100.00
13968;BME280;39536;52.198;9.920;2023-02-20T12:15:29;100816.59;;;7.43;100.00
13968;BME280;39536;52.198;9.920;2023-02-20T12:21:16;100838.22;;;7.40;100.00
13968;BME280;39536;52.198;9.920;2023-02-20T12:23:55;100817.53;;;7.39;100.00
13968;BME280;39536;52.198;9.920;2023-02-20T12:26:39;100843.41;;;7.42;100.00
13968;BME280;39536;52.198;9.920;2023-02-20T12:29:20;100834.81;;;7.37;100.00
13968;BME280;39536;52.198;9.920;2023-02-20T12:31:59;100851.19;;;7.42;100.00
13968;BME280;39536;52.198;9.920;2023-02-20T12:34:35;100864.13;;;7.42;100.00
13968;BME280;39536;52.198;9.920;2023-02-20T12:37:10;100842.63;;;7.35;100.00
13968;BME280;39536;52.198;9.920;2023-02-20T12:39:51;100849.56;;;7.33;100.00
13968;BME280;39536;52.198;9.920;2023-02-20T12:42:26;100869.50;;;7.30;100.00
13968;BME280;39536;52.198;9.920;2023-02-20T12:45:25;100907.38;;;7.38;100.00
13968;BME280;39536;52.198;9.920;2023-02-20T12:48:06;100877.09;;;7.42;100.00
13968;BME280;39536;52.198;9.920;2023-02-20T12:50:41;100853.00;;;7.35;100.00
13968;BME280;39536;52.198;9.920;2023-02-20T12:53:26;100859.84;;;7.39;100.00
13968;BME280;39536;52.198;9.920;2023-02-20T12:56:15;100867.63;;;7.39;100.00
13968;BME280;39536;52.198;9.920;2023-02-20T12:58:49;100866.78;;;7.39;100.00
13968;BME280;39536;52.198;9.920;2023-02-20T13:01:22;100858.09;;;7.40;100.00
13968;BME280;39536;52.198;9.920;2023-02-20T13:03:58;100829.56;;;7.45;100.00
13968;BME280;39536;52.198;9.920;2023-02-20T13:06:29;100850.28;;;7.45;100.00
13968;BME280;39536;52.198;9.920;2023-02-20T13:09:05;100872.72;;;7.44;100.00
13968;BME280;39536;52.198;9.920;2023-02-20T13:11:40;100849.44;;;7.41;100.00
13968;BME280;39536;52.198;9.920;2023-02-20T13:14:18;100852.84;;;7.46;100.00
13968;BME280;39536;52.198;9.920;2023-02-20T13:16:54;100803.47;;;7.54;100.00
13968;BME280;39536;52.198;9.920;2023-02-20T13:19:29;100839.78;;;7.52;100.00
13968;BME280;39536;52.198;9.920;2023-02-20T13:21:58;100872.72;;;7.44;100.00
13968;BME280;39536;52.198;9.920;2023-02-20T13:24:32;100851.94;;;7.47;100.00
13968;BME280;39536;52.198;9.920;2023-02-20T13:27:02;100810.53;;;7.44;100.00
13968;BME280;39536;52.198;9.920;2023-02-20T13:29:33;100840.78;;;7.44;100.00